sensor_id;sensor_type;location;lat;lon;timestamp;temperature;humidity
16271;DHT22;8243;49.048;8.396;2024-03-08T00:00:13;5.50;86.40
16271;DHT22;8243;49.048;8.396;2024-03-08T00:02:40;5.40;86.70
16271;DHT22;8243;49.048;8.396;2024-03-08T00:05:06;5.30;86.60
16271;DHT22;8243;49.048;8.396;2024-03-08T00:07:36;5.30;86.60
16271;DHT22;8243;49.048;8.396;2024-03-08T00:10:06;5.40;86.70
16271;DHT22;8243;49.048;8.396;2024-03-08T00:12:32;5.20;87.00
16271;DHT22;8243;49.048;8.396;2024-03-08T00:14:58;5.30;88.20
16271;DHT22;8243;49.048;8.396;2024-03-08T00:17:24;5.20;88.10
16271;DHT22;8243;49.048;8.396;2024-03-08T00:19:50;5.10;88.60
16271;DHT22;8243;49.048;8.396;2024-03-08T00:22:16;5.10;88.80
16271;DHT22;8243;49.048;8.396;2024-03-08T00:24:42;5.20;89.00
16271;DHT22;8243;49.048;8.396;2024-03-08T00:27:07;5.10;89.20
16271;DHT22;8243;49.048;8.396;2024-03-08T00:29:34;5.10;89.70
16271;DHT22;8243;49.048;8.396;2024-03-08T00:32:00;5.00;90.10
16271;DHT22;8243;49.048;8.396;2024-03-08T00:34:26;5.00;90.10
16271;DHT22;8243;49.048;8.396;2024-03-08T00:36:52;4.90;90.40
16271;DHT22;8243;49.048;8.396;2024-03-08T00:39:18;5.00;90.60
16271;DHT22;8243;49.048;8.396;2024-03-08T00:41:45;4.80;90.50
16271;DHT22;8243;49.048;8.396;2024-03-08T00:44:11;4.80;90.90
16271;DHT22;8243;49.048;8.396;2024-03-08T00:46:36;4.60;91.70
16271;DHT22;8243;49.048;8.396;2024-03-08T00:49:02;4.80;92.60
16271;DHT22;8243;49.048;8.396;2024-03-08T00:51:27;4.80;93.30
16271;DHT22;8243;49.048;8.396;2024-03-08T00:53:53;4.50;94.10
16271;DHT22;8243;49.048;8.396;2024-03-08T00:56:18;4.50;94.50
16271;DHT22;8243;49.048;8.396;2024-03-08T00:58:44;4.50;95.00
16271;DHT22;8243;49.048;8.396;2024-03-08T01:01:09;4.40;95.10
16271;DHT22;8243;49.048;8.396;2024-03-08T01:03:36;4.50;95.10
16271;DHT22;8243;49.048;8.396;2024-03-08T01:06:01;4.60;95.00
16271;DHT22;8243;49.048;8.396;2024-03-08T01:08:27;4.40;95.50
16271;DHT22;8243;49.048;8.396;2024-03-08T01:10:53;4.40;96.20
16271;DHT22;8243;49.048;8.396;2024-03-08T01:13:19;4.20;97.30
16271;DHT22;8243;49.048;8.396;2024-03-08T01:15:45;4.10;98.20
16271;DHT22;8243;49.048;8.396;2024-03-08T01:18:11;4.20;98.50
16271;DHT22;8243;49.048;8.396;2024-03-08T01:20:37;4.40;98.70
16271;DHT22;8243;49.048;8.396;2024-03-08T01:23:02;4.10;98.60
16271;DHT22;8243;49.048;8.396;2024-03-08T01:25:29;4.10;99.50
16271;DHT22;8243;49.048;8.396;2024-03-08T01:27:55;4.10;99.90
16271;DHT22;8243;49.048;8.396;2024-03-08T01:30:20;3.90;99.90
16271;DHT22;8243;49.048;8.396;2024-03-08T01:32:46;3.80;99.90
16271;DHT22;8243;49.048;8.396;2024-03-08T01:35:11;3.90;99.90
16271;DHT22;8243;49.048;8.396;2024-03-08T01:37:37;3.70;99.90
16271;DHT22;8243;49.048;8.396;2024-03-08T01:40:03;4.00;99.90
16271;DHT22;8243;49.048;8.396;2024-03-08T01:42:29;3.60;99.90
16271;DHT22;8243;49.048;8.396;2024-03-08T01:44:55;4.00;99.90
16271;DHT22;8243;49.048;8.396;2024-03-08T01:47:21;3.80;99.90
16271;DHT22;8243;49.048;8.396;2024-03-08T01:49:49;3.50;99.90
16271;DHT22;8243;49.048;8.396;2024-03-08T01:52:15;3.80;99.90
16271;DHT22;8243;49.048;8.396;2024-03-08T01:54:41;3.60;99.90
16271;DHT22;8243;49.048;8.396;2024-03-08T01:57:07;3.60;99.90
16271;DHT22;8243;49.048;8.396;2024-03-08T01:59:33;3.70;99.90
16271;DHT22;8243;49.048;8.396;2024-03-08T02:02:01;3.70;99.90
16271;DHT22;8243;49.048;8.396;2024-03-08T02:04:29;3.60;99.90
16271;DHT22;8243;49.048;8.396;2024-03-08T02:06:56;3.50;99.90
16271;DHT22;8243;49.048;8.396;2024-03-08T02:09:23;3.50;99.90
16271;DHT22;8243;49.048;8.396;2024-03-08T02:11:50;3.30;99.90
16271;DHT22;8243;49.048;8.396;2024-03-08T02:14:17;3.40;99.90
16271;DHT22;8243;49.048;8.396;2024-03-08T02:16:44;3.30;99.90
16271;DHT22;8243;49.048;8.396;2024-03-08T02:19:09;3.40;99.90
16271;DHT22;8243;49.048;8.396;2024-03-08T02:21:35;3.40;99.90
16271;DHT22;8243;49.048;8.396;2024-03-08T02:24:01;3.30;99.90
16271;DHT22;8243;49.048;8.396;2024-03-08T02:26:27;3.40;99.90
16271;DHT22;8243;49.048;8.396;2024-03-08T02:28:53;3.10;99.90
16271;DHT22;8243;49.048;8.396;2024-03-08T02:31:18;3.30;99.90
16271;DHT22;8243;49.048;8.396;2024-03-08T02:33:44;3.20;99.90
16271;DHT22;8243;49.048;8.396;2024-03-08T02:36:09;3.30;99.90
16271;DHT22;8243;49.048;8.396;2024-03-08T02:38:35;3.10;99.90
16271;DHT22;8243;49.048;8.396;2024-03-08T02:41:01;3.20;99.90
16271;DHT22;8243;49.048;8.396;2024-03-08T02:43:26;2.90;99.90
16271;DHT22;8243;49.048;8.396;2024-03-08T02:45:52;3.00;99.90
16271;DHT22;8243;49.048;8.396;2024-03-08T02:48:20;2.90;99.90
16271;DHT22;8243;49.048;8.396;2024-03-08T02:50:47;2.90;99.90
16271;DHT22;8243;49.048;8.396;2024-03-08T02:53:13;3.00;99.90
16271;DHT22;8243;49.048;8.396;2024-03-08T02:55:39;3.10;99.90
16271;DHT22;8243;49.048;8.396;2024-03-08T02:58:07;2.90;99.90
16271;DHT22;8243;49.048;8.396;2024-03-08T03:00:36;3.10;99.90
16271;DHT22;8243;49.048;8.396;2024-03-08T03:03:02;3.00;99.90
16271;DHT22;8243;49.048;8.396;2024-03-08T03:05:29;3.00;99.90
16271;DHT22;8243;49.048;8.396;2024-03-08T03:07:55;2.90;99.90
16271;DHT22;8243;49.048;8.396;2024-03-08T03:10:21;2.90;99.90
16271;DHT22;8243;49.048;8.396;2024-03-08T03:12:49;2.90;99.90
16271;DHT22;8243;49.048;8.396;2024-03-08T03:15:16;3.00;99.90
16271;DHT22;8243;49.048;8.396;2024-03-08T03:17:48;2.90;99.90
16271;DHT22;8243;49.048;8.396;2024-03-08T03:20:14;2.90;99.90
16271;DHT22;8243;49.048;8.396;2024-03-08T03:22:40;2.90;99.90
16271;DHT22;8243;49.048;8.396;2024-03-08T03:25:10;2.70;99.90
16271;DHT22;8243;49.048;8.396;2024-03-08T03:27:35;2.90;99.90
16271;DHT22;8243;49.048;8.396;2024-03-08T03:30:02;2.90;99.90
16271;DHT22;8243;49.048;8.396;2024-03-08T03:32:46;2.80;99.90
16271;DHT22;8243;49.048;8.396;2024-03-08T03:35:13;2.90;99.90
16271;DHT22;8243;49.048;8.396;2024-03-08T03:37:40;2.60;99.90
16271;DHT22;8243;49.048;8.396;2024-03-08T03:40:08;2.70;99.90
16271;DHT22;8243;49.048;8.396;2024-03-08T03:42:34;2.50;99.90
16271;DHT22;8243;49.048;8.396;2024-03-08T03:44:59;2.40;99.90
16271;DHT22;8243;49.048;8.396;2024-03-08T03:47:25;2.60;99.90
16271;DHT22;8243;49.048;8.396;2024-03-08T03:49:52;2.30;99.90
16271;DHT22;8243;49.048;8.396;2024-03-08T03:52:19;2.50;99.90
16271;DHT22;8243;49.048;8.396;2024-03-08T03:54:45;2.40;99.90
16271;DHT22;8243;49.048;8.396;2024-03-08T03:57:10;2.30;99.90
16271;DHT22;8243;49.048;8.396;2024-03-08T03:59:37;2.10;99.90
16271;DHT22;8243;49.048;8.396;2024-03-08T04:02:03;2.30;99.90
16271;DHT22;8243;49.048;8.396;2024-03-08T04:04:35;2.20;99.90
16271;DHT22;8243;49.048;8.396;2024-03-08T04:07:00;2.30;99.90
16271;DHT22;8243;49.048;8.396;2024-03-08T04:09:27;2.10;99.90
16271;DHT22;8243;49.048;8.396;2024-03-08T04:11:53;2.10;99.90
16271;DHT22;8243;49.048;8.396;2024-03-08T04:14:20;2.30;99.90
16271;DHT22;8243;49.048;8.396;2024-03-08T04:16:46;2.20;99.90
16271;DHT22;8243;49.048;8.396;2024-03-08T04:19:13;2.00;99.90
16271;DHT22;8243;49.048;8.396;2024-03-08T04:21:39;2.00;99.90
16271;DHT22;8243;49.048;8.396;2024-03-08T04:24:05;2.10;99.90
16271;DHT22;8243;49.048;8.396;2024-03-08T04:26:31;2.00;99.90
16271;DHT22;8243;49.048;8.396;2024-03-08T04:28:57;2.10;99.90
16271;DHT22;8243;49.048;8.396;2024-03-08T04:31:23;2.00;99.90
16271;DHT22;8243;49.048;8.396;2024-03-08T04:33:49;2.00;99.90
16271;DHT22;8243;49.048;8.396;2024-03-08T04:36:14;1.90;99.90
16271;DHT22;8243;49.048;8.396;2024-03-08T04:38:40;1.90;99.90
16271;DHT22;8243;49.048;8.396;2024-03-08T04:41:07;2.00;99.90
16271;DHT22;8243;49.048;8.396;2024-03-08T04:43:33;1.90;99.90
16271;DHT22;8243;49.048;8.396;2024-03-08T04:46:00;2.00;99.90
16271;DHT22;8243;49.048;8.396;2024-03-08T04:48:25;1.80;99.90
16271;DHT22;8243;49.048;8.396;2024-03-08T04:50:54;2.00;99.90
16271;DHT22;8243;49.048;8.396;2024-03-08T04:53:21;2.00;99.90
16271;DHT22;8243;49.048;8.396;2024-03-08T04:55:46;1.60;99.90
16271;DHT22;8243;49.048;8.396;2024-03-08T04:58:12;1.70;99.90
16271;DHT22;8243;49.048;8.396;2024-03-08T05:00:37;1.90;99.90
16271;DHT22;8243;49.048;8.396;2024-03-08T05:03:03;1.90;99.90
16271;DHT22;8243;49.048;8.396;2024-03-08T05:05:30;1.90;99.90
16271;DHT22;8243;49.048;8.396;2024-03-08T05:07:56;1.80;99.90
16271;DHT22;8243;49.048;8.396;2024-03-08T05:10:21;2.00;99.90
16271;DHT22;8243;49.048;8.396;2024-03-08T05:12:47;1.80;99.90
16271;DHT22;8243;49.048;8.396;2024-03-08T05:15:13;1.80;99.90
16271;DHT22;8243;49.048;8.396;2024-03-08T05:17:38;1.80;99.90
16271;DHT22;8243;49.048;8.396;2024-03-08T05:20:06;2.00;99.90
16271;DHT22;8243;49.048;8.396;2024-03-08T05:22:33;1.80;99.90
16271;DHT22;8243;49.048;8.396;2024-03-08T05:24:59;1.80;99.90
16271;DHT22;8243;49.048;8.396;2024-03-08T05:27:25;1.80;99.90
16271;DHT22;8243;49.048;8.396;2024-03-08T05:29:50;1.90;99.90
16271;DHT22;8243;49.048;8.396;2024-03-08T05:32:16;2.00;99.90
16271;DHT22;8243;49.048;8.396;2024-03-08T05:34:41;2.10;99.90
16271;DHT22;8243;49.048;8.396;2024-03-08T05:37:08;2.00;99.90
16271;DHT22;8243;49.048;8.396;2024-03-08T05:39:33;2.10;99.90
16271;DHT22;8243;49.048;8.396;2024-03-08T05:41:59;2.10;99.90
16271;DHT22;8243;49.048;8.396;2024-03-08T05:44:25;2.20;99.90
16271;DHT22;8243;49.048;8.396;2024-03-08T05:46:52;2.00;99.90
16271;DHT22;8243;49.048;8.396;2024-03-08T05:49:17;1.90;99.90
16271;DHT22;8243;49.048;8.396;2024-03-08T05:51:43;2.10;99.90
16271;DHT22;8243;49.048;8.396;2024-03-08T05:54:10;2.20;99.90
16271;DHT22;8243;49.048;8.396;2024-03-08T05:56:37;2.20;99.90
16271;DHT22;8243;49.048;8.396;2024-03-08T05:59:03;2.00;99.90
16271;DHT22;8243;49.048;8.396;2024-03-08T06:01:30;2.10;99.90
16271;DHT22;8243;49.048;8.396;2024-03-08T06:03:56;2.10;99.90
16271;DHT22;8243;49.048;8.396;2024-03-08T06:06:23;2.10;99.90
16271;DHT22;8243;49.048;8.396;2024-03-08T06:08:49;2.30;99.90
16271;DHT22;8243;49.048;8.396;2024-03-08T06:11:16;2.30;99.90
16271;DHT22;8243;49.048;8.396;2024-03-08T06:13:46;2.40;99.90
16271;DHT22;8243;49.048;8.396;2024-03-08T06:16:12;2.40;99.90
16271;DHT22;8243;49.048;8.396;2024-03-08T06:18:38;2.50;99.90
16271;DHT22;8243;49.048;8.396;2024-03-08T06:21:05;2.60;99.90
16271;DHT22;8243;49.048;8.396;2024-03-08T06:23:33;2.80;99.90
16271;DHT22;8243;49.048;8.396;2024-03-08T06:25:59;3.00;99.90
16271;DHT22;8243;49.048;8.396;2024-03-08T06:28:25;3.30;99.90
16271;DHT22;8243;49.048;8.396;2024-03-08T06:30:53;3.60;99.90
16271;DHT22;8243;49.048;8.396;2024-03-08T06:33:20;4.00;99.90
16271;DHT22;8243;49.048;8.396;2024-03-08T06:35:46;4.10;97.10
16271;DHT22;8243;49.048;8.396;2024-03-08T06:38:11;4.30;94.00
16271;DHT22;8243;49.048;8.396;2024-03-08T06:40:37;4.60;92.10
16271;DHT22;8243;49.048;8.396;2024-03-08T06:43:03;4.50;90.20
16271;DHT22;8243;49.048;8.396;2024-03-08T06:45:31;4.60;88.70
16271;DHT22;8243;49.048;8.396;2024-03-08T06:47:57;4.90;85.80
16271;DHT22;8243;49.048;8.396;2024-03-08T06:50:22;5.20;81.30
16271;DHT22;8243;49.048;8.396;2024-03-08T06:52:48;5.60;77.30
16271;DHT22;8243;49.048;8.396;2024-03-08T06:55:19;5.40;74.40
16271;DHT22;8243;49.048;8.396;2024-03-08T06:57:45;5.40;71.60
16271;DHT22;8243;49.048;8.396;2024-03-08T07:00:11;5.40;71.90
16271;DHT22;8243;49.048;8.396;2024-03-08T07:02:40;5.70;69.30
16271;DHT22;8243;49.048;8.396;2024-03-08T07:05:11;5.70;67.80
16271;DHT22;8243;49.048;8.396;2024-03-08T07:07:37;6.10;65.20
16271;DHT22;8243;49.048;8.396;2024-03-08T07:10:03;6.30;62.80
16271;DHT22;8243;49.048;8.396;2024-03-08T07:12:29;6.40;60.90
16271;DHT22;8243;49.048;8.396;2024-03-08T07:14:55;6.30;58.90
16271;DHT22;8243;49.048;8.396;2024-03-08T07:17:21;6.80;58.00
16271;DHT22;8243;49.048;8.396;2024-03-08T07:19:46;7.30;51.00
16271;DHT22;8243;49.048;8.396;2024-03-08T07:22:21;7.10;50.80
16271;DHT22;8243;49.048;8.396;2024-03-08T07:24:49;7.00;51.30
16271;DHT22;8243;49.048;8.396;2024-03-08T07:27:33;7.40;51.20
16271;DHT22;8243;49.048;8.396;2024-03-08T07:29:59;7.60;46.90
16271;DHT22;8243;49.048;8.396;2024-03-08T07:32:26;8.80;42.10
16271;DHT22;8243;49.048;8.396;2024-03-08T07:34:53;8.60;36.70
16271;DHT22;8243;49.048;8.396;2024-03-08T07:37:20;8.70;36.40
16271;DHT22;8243;49.048;8.396;2024-03-08T07:39:46;8.20;37.60
16271;DHT22;8243;49.048;8.396;2024-03-08T07:42:12;8.40;37.50
16271;DHT22;8243;49.048;8.396;2024-03-08T07:44:38;8.90;34.70
16271;DHT22;8243;49.048;8.396;2024-03-08T07:47:04;9.00;33.70
16271;DHT22;8243;49.048;8.396;2024-03-08T07:49:29;8.90;32.40
16271;DHT22;8243;49.048;8.396;2024-03-08T07:51:56;8.80;32.10
16271;DHT22;8243;49.048;8.396;2024-03-08T07:54:22;9.00;30.50
16271;DHT22;8243;49.048;8.396;2024-03-08T07:56:47;8.90;31.60
16271;DHT22;8243;49.048;8.396;2024-03-08T07:59:13;9.60;29.00
16271;DHT22;8243;49.048;8.396;2024-03-08T08:01:39;9.80;27.30
16271;DHT22;8243;49.048;8.396;2024-03-08T08:04:04;8.30;30.30
16271;DHT22;8243;49.048;8.396;2024-03-08T08:06:30;8.80;29.80
16271;DHT22;8243;49.048;8.396;2024-03-08T08:08:59;8.70;29.80
16271;DHT22;8243;49.048;8.396;2024-03-08T08:11:26;9.10;28.80
16271;DHT22;8243;49.048;8.396;2024-03-08T08:13:53;8.80;28.90
16271;DHT22;8243;49.048;8.396;2024-03-08T08:16:20;9.00;28.40
16271;DHT22;8243;49.048;8.396;2024-03-08T08:18:45;8.90;28.30
16271;DHT22;8243;49.048;8.396;2024-03-08T08:21:13;9.10;29.10
16271;DHT22;8243;49.048;8.396;2024-03-08T08:23:38;9.20;26.50
16271;DHT22;8243;49.048;8.396;2024-03-08T08:26:04;8.50;28.70
16271;DHT22;8243;49.048;8.396;2024-03-08T08:28:30;7.90;29.60
16271;DHT22;8243;49.048;8.396;2024-03-08T08:30:56;7.70;30.40
16271;DHT22;8243;49.048;8.396;2024-03-08T08:33:21;7.50;31.70
16271;DHT22;8243;49.048;8.396;2024-03-08T08:35:47;7.50;32.60
16271;DHT22;8243;49.048;8.396;2024-03-08T08:38:13;6.90;36.30
16271;DHT22;8243;49.048;8.396;2024-03-08T08:40:38;7.00;37.20
16271;DHT22;8243;49.048;8.396;2024-03-08T08:43:04;7.30;37.00
16271;DHT22;8243;49.048;8.396;2024-03-08T08:45:30;7.10;36.80
16271;DHT22;8243;49.048;8.396;2024-03-08T08:47:56;7.20;36.60
16271;DHT22;8243;49.048;8.396;2024-03-08T08:50:22;7.60;35.90
16271;DHT22;8243;49.048;8.396;2024-03-08T08:52:54;8.20;33.40
16271;DHT22;8243;49.048;8.396;2024-03-08T08:55:20;7.80;33.60
16271;DHT22;8243;49.048;8.396;2024-03-08T08:57:52;7.40;35.00
16271;DHT22;8243;49.048;8.396;2024-03-08T09:00:21;7.40;35.70
16271;DHT22;8243;49.048;8.396;2024-03-08T09:02:49;7.20;36.70
16271;DHT22;8243;49.048;8.396;2024-03-08T09:05:16;7.40;36.40
16271;DHT22;8243;49.048;8.396;2024-03-08T09:07:43;7.70;34.40
16271;DHT22;8243;49.048;8.396;2024-03-08T09:10:09;7.90;33.90
16271;DHT22;8243;49.048;8.396;2024-03-08T09:12:40;8.20;32.50
16271;DHT22;8243;49.048;8.396;2024-03-08T09:15:06;8.00;33.10
16271;DHT22;8243;49.048;8.396;2024-03-08T09:17:34;7.70;34.90
16271;DHT22;8243;49.048;8.396;2024-03-08T09:19:59;7.80;33.80
16271;DHT22;8243;49.048;8.396;2024-03-08T09:22:25;7.90;33.60
16271;DHT22;8243;49.048;8.396;2024-03-08T09:24:50;7.90;32.40
16271;DHT22;8243;49.048;8.396;2024-03-08T09:27:16;7.50;34.50
16271;DHT22;8243;49.048;8.396;2024-03-08T09:29:41;7.70;33.90
16271;DHT22;8243;49.048;8.396;2024-03-08T09:32:09;7.80;33.70
16271;DHT22;8243;49.048;8.396;2024-03-08T09:34:37;7.70;34.50
16271;DHT22;8243;49.048;8.396;2024-03-08T09:37:02;7.80;34.60
16271;DHT22;8243;49.048;8.396;2024-03-08T09:39:29;7.80;36.00
16271;DHT22;8243;49.048;8.396;2024-03-08T09:41:55;8.70;30.90
16271;DHT22;8243;49.048;8.396;2024-03-08T09:44:21;8.50;30.10
16271;DHT22;8243;49.048;8.396;2024-03-08T09:46:47;8.80;30.30
16271;DHT22;8243;49.048;8.396;2024-03-08T09:49:13;8.80;29.50
16271;DHT22;8243;49.048;8.396;2024-03-08T09:51:38;8.70;29.90
16271;DHT22;8243;49.048;8.396;2024-03-08T09:54:07;8.70;29.80
16271;DHT22;8243;49.048;8.396;2024-03-08T09:56:34;8.60;29.20
16271;DHT22;8243;49.048;8.396;2024-03-08T09:59:00;8.20;31.10
16271;DHT22;8243;49.048;8.396;2024-03-08T10:01:44;8.00;33.10
16271;DHT22;8243;49.048;8.396;2024-03-08T10:04:11;7.90;33.30
16271;DHT22;8243;49.048;8.396;2024-03-08T10:06:37;8.20;32.20
16271;DHT22;8243;49.048;8.396;2024-03-08T10:09:03;7.80;33.00
16271;DHT22;8243;49.048;8.396;2024-03-08T10:11:30;8.30;31.80
16271;DHT22;8243;49.048;8.396;2024-03-08T10:13:55;8.30;31.10
16271;DHT22;8243;49.048;8.396;2024-03-08T10:16:22;8.30;31.00
16271;DHT22;8243;49.048;8.396;2024-03-08T10:18:49;8.30;30.60
16271;DHT22;8243;49.048;8.396;2024-03-08T10:21:15;8.40;31.00
16271;DHT22;8243;49.048;8.396;2024-03-08T10:23:42;9.10;30.00
16271;DHT22;8243;49.048;8.396;2024-03-08T10:28:46;9.50;26.60
16271;DHT22;8243;49.048;8.396;2024-03-08T10:31:15;9.30;27.60
16271;DHT22;8243;49.048;8.396;2024-03-08T10:33:41;9.60;28.60
16271;DHT22;8243;49.048;8.396;2024-03-08T10:36:08;9.70;27.50
16271;DHT22;8243;49.048;8.396;2024-03-08T10:38:37;8.80;27.70
16271;DHT22;8243;49.048;8.396;2024-03-08T10:41:08;8.40;29.90
16271;DHT22;8243;49.048;8.396;2024-03-08T10:44:06;8.30;30.00
16271;DHT22;8243;49.048;8.396;2024-03-08T10:46:49;8.00;30.70
16271;DHT22;8243;49.048;8.396;2024-03-08T10:49:25;8.00;33.10
16271;DHT22;8243;49.048;8.396;2024-03-08T10:51:51;8.40;31.60
16271;DHT22;8243;49.048;8.396;2024-03-08T10:54:19;8.70;30.20
16271;DHT22;8243;49.048;8.396;2024-03-08T10:56:48;8.20;31.40
16271;DHT22;8243;49.048;8.396;2024-03-08T10:59:14;7.80;32.90
16271;DHT22;8243;49.048;8.396;2024-03-08T11:01:40;8.00;33.50
16271;DHT22;8243;49.048;8.396;2024-03-08T11:04:06;8.20;32.50
16271;DHT22;8243;49.048;8.396;2024-03-08T11:12:27;8.20;31.40
16271;DHT22;8243;49.048;8.396;2024-03-08T11:14:59;8.00;33.40
16271;DHT22;8243;49.048;8.396;2024-03-08T11:17:47;8.10;33.20
16271;DHT22;8243;49.048;8.396;2024-03-08T11:20:17;8.10;33.40
16271;DHT22;8243;49.048;8.396;2024-03-08T11:22:50;8.50;33.30
16271;DHT22;8243;49.048;8.396;2024-03-08T11:28:22;8.20;33.00
16271;DHT22;8243;49.048;8.396;2024-03-08T11:33:28;8.50;32.40
16271;DHT22;8243;49.048;8.396;2024-03-08T11:36:11;9.00;30.50
16271;DHT22;8243;49.048;8.396;2024-03-08T11:38:46;9.20;29.50
16271;DHT22;8243;49.048;8.396;2024-03-08T11:41:18;9.10;30.00
16271;DHT22;8243;49.048;8.396;2024-03-08T11:43:45;8.70;30.40
16271;DHT22;8243;49.048;8.396;2024-03-08T11:46:11;8.50;31.40
16271;DHT22;8243;49.048;8.396;2024-03-08T11:48:39;8.70;32.30
16271;DHT22;8243;49.048;8.396;2024-03-08T11:51:07;8.90;30.40
16271;DHT22;8243;49.048;8.396;2024-03-08T11:53:33;8.80;30.50
16271;DHT22;8243;49.048;8.396;2024-03-08T11:56:11;8.00;32.70
16271;DHT22;8243;49.048;8.396;2024-03-08T11:58:37;7.80;34.80
16271;DHT22;8243;49.048;8.396;2024-03-08T12:01:07;7.80;35.20
16271;DHT22;8243;49.048;8.396;2024-03-08T12:03:41;8.10;34.30
16271;DHT22;8243;49.048;8.396;2024-03-08T12:06:12;8.40;33.70
16271;DHT22;8243;49.048;8.396;2024-03-08T12:08:40;8.70;31.30
16271;DHT22;8243;49.048;8.396;2024-03-08T12:11:07;8.70;31.90
16271;DHT22;8243;49.048;8.396;2024-03-08T12:13:35;8.50;31.80
16271;DHT22;8243;49.048;8.396;2024-03-08T12:16:04;8.50;32.30
16271;DHT22;8243;49.048;8.396;2024-03-08T12:18:34;8.30;32.70
16271;DHT22;8243;49.048;8.396;2024-03-08T12:21:12;8.10;34.20
16271;DHT22;8243;49.048;8.396;2024-03-08T12:23:46;8.50;33.00
16271;DHT22;8243;49.048;8.396;2024-03-08T12:26:35;8.70;32.30
16271;DHT22;8243;49.048;8.396;2024-03-08T12:29:21;9.00;32.10
16271;DHT22;8243;49.048;8.396;2024-03-08T12:31:51;9.40;29.50
16271;DHT22;8243;49.048;8.396;2024-03-08T12:34:18;9.30;29.90
16271;DHT22;8243;49.048;8.396;2024-03-08T12:36:47;9.50;29.00
16271;DHT22;8243;49.048;8.396;2024-03-08T12:39:17;9.70;28.10
16271;DHT22;8243;49.048;8.396;2024-03-08T12:41:47;10.00;27.90
16271;DHT22;8243;49.048;8.396;2024-03-08T12:44:12;10.30;25.60
16271;DHT22;8243;49.048;8.396;2024-03-08T12:46:38;10.20;25.60
16271;DHT22;8243;49.048;8.396;2024-03-08T12:49:10;10.00;25.10
16271;DHT22;8243;49.048;8.396;2024-03-08T12:51:37;9.30;27.60
16271;DHT22;8243;49.048;8.396;2024-03-08T12:54:07;9.00;28.20
16271;DHT22;8243;49.048;8.396;2024-03-08T12:56:33;8.80;30.00
16271;DHT22;8243;49.048;8.396;2024-03-08T12:59:00;9.10;29.20
16271;DHT22;8243;49.048;8.396;2024-03-08T13:01:26;9.00;29.20
16271;DHT22;8243;49.048;8.396;2024-03-08T13:03:52;8.70;29.50
16271;DHT22;8243;49.048;8.396;2024-03-08T13:06:18;8.40;30.90
16271;DHT22;8243;49.048;8.396;2024-03-08T13:08:47;8.40;31.70
16271;DHT22;8243;49.048;8.396;2024-03-08T13:11:13;9.00;30.40
16271;DHT22;8243;49.048;8.396;2024-03-08T13:13:42;8.60;31.00
16271;DHT22;8243;49.048;8.396;2024-03-08T13:16:08;8.50;31.20
16271;DHT22;8243;49.048;8.396;2024-03-08T13:18:35;8.30;32.10
16271;DHT22;8243;49.048;8.396;2024-03-08T13:21:01;8.30;32.10
16271;DHT22;8243;49.048;8.396;2024-03-08T13:23:35;8.40;32.00
16271;DHT22;8243;49.048;8.396;2024-03-08T13:26:11;8.70;32.60
16271;DHT22;8243;49.048;8.396;2024-03-08T13:28:45;9.30;30.00
16271;DHT22;8243;49.048;8.396;2024-03-08T13:31:11;9.40;29.50
16271;DHT22;8243;49.048;8.396;2024-03-08T13:33:38;9.40;28.30
16271;DHT22;8243;49.048;8.396;2024-03-08T13:36:08;9.10;30.30
16271;DHT22;8243;49.048;8.396;2024-03-08T13:38:44;9.10;29.90
16271;DHT22;8243;49.048;8.396;2024-03-08T13:41:14;9.20;30.00
16271;DHT22;8243;49.048;8.396;2024-03-08T13:43:47;9.40;29.10
16271;DHT22;8243;49.048;8.396;2024-03-08T13:46:15;9.50;28.10
16271;DHT22;8243;49.048;8.396;2024-03-08T13:48:40;9.70;28.50
16271;DHT22;8243;49.048;8.396;2024-03-08T13:51:07;9.90;27.80
16271;DHT22;8243;49.048;8.396;2024-03-08T13:53:33;10.10;25.50
16271;DHT22;8243;49.048;8.396;2024-03-08T13:56:01;9.70;27.10
16271;DHT22;8243;49.048;8.396;2024-03-08T13:58:27;9.80;26.90
16271;DHT22;8243;49.048;8.396;2024-03-08T14:00:52;9.70;27.10
16271;DHT22;8243;49.048;8.396;2024-03-08T14:03:18;9.90;26.80
16271;DHT22;8243;49.048;8.396;2024-03-08T14:05:43;10.10;26.10
16271;DHT22;8243;49.048;8.396;2024-03-08T14:08:10;10.20;25.90
16271;DHT22;8243;49.048;8.396;2024-03-08T14:10:37;10.10;25.50
16271;DHT22;8243;49.048;8.396;2024-03-08T14:13:03;10.10;25.50
16271;DHT22;8243;49.048;8.396;2024-03-08T14:15:31;10.50;25.40
16271;DHT22;8243;49.048;8.396;2024-03-08T14:17:56;10.40;25.40
16271;DHT22;8243;49.048;8.396;2024-03-08T14:20:23;10.20;24.60
16271;DHT22;8243;49.048;8.396;2024-03-08T14:22:51;10.40;24.30
16271;DHT22;8243;49.048;8.396;2024-03-08T14:25:17;10.30;24.50
16271;DHT22;8243;49.048;8.396;2024-03-08T14:27:46;10.50;24.20
16271;DHT22;8243;49.048;8.396;2024-03-08T14:30:12;10.60;23.80
16271;DHT22;8243;49.048;8.396;2024-03-08T14:32:38;10.70;23.70
16271;DHT22;8243;49.048;8.396;2024-03-08T14:35:05;10.70;23.50
16271;DHT22;8243;49.048;8.396;2024-03-08T14:37:31;10.60;24.00
16271;DHT22;8243;49.048;8.396;2024-03-08T14:39:56;10.60;24.10
16271;DHT22;8243;49.048;8.396;2024-03-08T14:42:22;10.80;23.40
16271;DHT22;8243;49.048;8.396;2024-03-08T14:44:48;10.80;24.10
16271;DHT22;8243;49.048;8.396;2024-03-08T14:47:17;10.80;23.90
16271;DHT22;8243;49.048;8.396;2024-03-08T14:49:43;10.90;23.90
16271;DHT22;8243;49.048;8.396;2024-03-08T14:52:08;11.10;22.80
16271;DHT22;8243;49.048;8.396;2024-03-08T14:54:53;11.00;22.40
16271;DHT22;8243;49.048;8.396;2024-03-08T14:57:18;10.60;23.40
16271;DHT22;8243;49.048;8.396;2024-03-08T14:59:44;10.60;23.60
16271;DHT22;8243;49.048;8.396;2024-03-08T15:02:10;10.80;23.40
16271;DHT22;8243;49.048;8.396;2024-03-08T15:04:36;10.90;23.40
16271;DHT22;8243;49.048;8.396;2024-03-08T15:07:02;11.10;22.90
16271;DHT22;8243;49.048;8.396;2024-03-08T15:09:31;11.20;22.60
16271;DHT22;8243;49.048;8.396;2024-03-08T15:12:06;11.10;22.30
16271;DHT22;8243;49.048;8.396;2024-03-08T15:14:32;11.00;22.30
16271;DHT22;8243;49.048;8.396;2024-03-08T15:16:58;11.10;22.30
16271;DHT22;8243;49.048;8.396;2024-03-08T15:19:24;11.10;22.20
16271;DHT22;8243;49.048;8.396;2024-03-08T15:21:50;11.00;22.10
16271;DHT22;8243;49.048;8.396;2024-03-08T15:24:20;11.00;21.90
16271;DHT22;8243;49.048;8.396;2024-03-08T15:26:47;11.00;22.20
16271;DHT22;8243;49.048;8.396;2024-03-08T15:29:16;11.10;22.30
16271;DHT22;8243;49.048;8.396;2024-03-08T15:31:49;11.20;22.20
16271;DHT22;8243;49.048;8.396;2024-03-08T15:34:17;11.10;22.50
16271;DHT22;8243;49.048;8.396;2024-03-08T15:36:45;11.10;22.90
16271;DHT22;8243;49.048;8.396;2024-03-08T15:39:13;11.10;22.60
16271;DHT22;8243;49.048;8.396;2024-03-08T15:41:38;11.20;22.50
16271;DHT22;8243;49.048;8.396;2024-03-08T15:44:04;11.30;22.40
16271;DHT22;8243;49.048;8.396;2024-03-08T15:46:30;11.30;21.90
16271;DHT22;8243;49.048;8.396;2024-03-08T15:48:55;11.40;22.00
16271;DHT22;8243;49.048;8.396;2024-03-08T15:51:22;11.30;21.60
16271;DHT22;8243;49.048;8.396;2024-03-08T15:53:47;11.40;21.90
16271;DHT22;8243;49.048;8.396;2024-03-08T15:56:19;11.50;21.50
16271;DHT22;8243;49.048;8.396;2024-03-08T15:58:45;11.40;21.60
16271;DHT22;8243;49.048;8.396;2024-03-08T16:01:11;11.30;21.20
16271;DHT22;8243;49.048;8.396;2024-03-08T16:03:37;11.20;21.50
16271;DHT22;8243;49.048;8.396;2024-03-08T16:06:03;11.20;21.70
16271;DHT22;8243;49.048;8.396;2024-03-08T16:08:30;11.20;21.20
16271;DHT22;8243;49.048;8.396;2024-03-08T16:10:56;11.20;21.20
16271;DHT22;8243;49.048;8.396;2024-03-08T16:13:26;11.10;21.20